Flight Track Log - Related Links

Times and Time Zones

All times are in EDT time to prevent confusion due to time zone crossing. See the ABX903 flight status page for this flight to view local times or setup timezone preferences in your user account.


Time Position Orientation Groundspeed Altitude Reporting Facility
EDT Latitude Longitude Course Direction KTS MPH feet Rate Location/Type
Fri 11:09:51 PM 47.5489 -122.3200 330° Northwest 151 174 1,400  Level Seattle Center
Fri 11:10:15 PM 47.5628 -122.3317 330° Northwest 156 180 1,800 1,944 Climbing Seattle Center
Fri 11:11:02 PM 47.5997 -122.3719 324° Northwest 194 223 3,700 2,222 Climbing Seattle Center
Fri 11:12:03 PM 47.6017 -122.4758 272° West 260 299 5,800 2,311 Climbing Seattle Center
Fri 11:13:04 PM 47.5492 -122.5461 222° Southwest 298 343 8,400 2,579 Climbing Seattle Center
Fri 11:14:04 PM 47.4978 -122.4681 134° Southeast 289 333 11,000 2,033 Climbing Seattle Center
Fri 11:15:05 PM 47.4833 -122.3356 99° East 328 377 12,500 2,016 Climbing Seattle Center
Fri 11:16:06 PM 47.4700 -122.1864 97° East 360 414 15,100 2,508 Climbing Seattle Center
Fri 11:17:07 PM 47.4572 -122.0322 97° East 376 433 17,600 2,182 Climbing Seattle Center
Fri 11:18:07 PM 47.4433 -121.8822 98° East 390 449 19,500 2,033 Climbing Seattle Center
Fri 11:19:08 PM 47.4300 -121.7214 97° East 400 460 21,700 2,066 Climbing Seattle Center
Fri 11:20:09 PM 47.4278 -121.5517 91° East 418 481 23,700 1,918 Climbing Seattle Center
Fri 11:21:10 PM 47.4239 -121.3783 92° East 426 490 25,600 2,016 Climbing Seattle Center
Fri 11:22:11 PM 47.4206 -121.1661 91° East 435 501 27,800 1,934 Climbing Seattle Center
Fri 11:23:11 PM 47.4172 -120.9867 92° East 441 507 29,500 1,636 Climbing Seattle Center
Fri 11:24:12 PM 47.4131 -120.8317 92° East 443 510 31,100 1,967 Climbing Seattle Center
Fri 11:25:13 PM 47.4072 -120.6214 92° East 430 495 33,500 1,835 Climbing Seattle Center
Fri 11:26:13 PM 47.4036 -120.4464 92° East 428 493 34,800 1,091 Climbing Seattle Center
Fri 11:27:14 PM 47.3972 -120.2719 93° East 428 493 35,700 836 Climbing Seattle Center
Fri 11:28:15 PM 47.3928 -120.0919 92° East 439 505 36,500 590 Climbing Seattle Center
Fri 11:29:16 PM 47.3867 -119.9094 93° East 446 513 36,900 198 Climbing Seattle Center
Fri 11:30:16 PM 47.3797 -119.7233 93° East 452 520 36,900  Level Seattle Center
Fri 11:31:17 PM 47.3739 -119.5375 93° East 456 525 36,900  Level Seattle Center
Fri 11:32:18 PM 47.3664 -119.3542 93° East 451 519 36,900  Level Seattle Center
Fri 11:33:19 PM 47.3600 -119.1731 93° East 444 511 36,900  Level Seattle Center
Fri 11:34:19 PM 47.3519 -118.9925 94° East 443 510 36,900 50 Level Seattle Center
Fri 11:35:20 PM 47.3444 -118.8103 93° East 445 512 37,000  Climbing Seattle Center
Fri 11:36:21 PM 47.3364 -118.6264 94° East 449 517 36,900  Descending Seattle Center
Fri 11:37:21 PM 47.3283 -118.4419 94° East 452 520 37,000  Climbing Seattle Center
Fri 11:38:22 PM 47.3192 -118.2553 94° East 456 525 36,900 -49 Descending Seattle Center
Fri 11:39:23 PM 47.3122 -118.0681 93° East 458 527 36,900  Level Seattle Center
Fri 11:40:23 PM 47.3014 -117.8464 94° East 457 526 36,900  Level Seattle Center
Fri 11:42:24 PM 47.2811 -117.4797 95° East 454 522 36,900  Level Salt Lake Center
Fri 11:43:26 PM 47.2714 -117.2989 94° East 450 518 36,900  Level Seattle Center
Fri 11:44:26 PM 47.2611 -117.1172 95° East 452 520 36,900 50 Level Seattle Center
Fri 11:45:27 PM 47.2503 -116.9361 95° East 451 519 37,000 49 Climbing Seattle Center
Fri 11:46:28 PM 47.2408 -116.7553 94° East 451 519 37,000 -50 Level Seattle Center
Fri 11:47:28 PM 47.2294 -116.5758 95° East 446 513 36,900  Descending Seattle Center
Fri 11:48:29 PM 47.2181 -116.3964 95° East 445 512 37,000 49 Climbing Seattle Center
Fri 11:49:30 PM 47.2075 -116.2150 95° East 446 513 37,000 -50 Level Seattle Center
Fri 11:50:30 PM 47.1956 -116.0353 96° East 446 513 36,900  Descending Seattle Center
Fri 11:51:31 PM 47.1808 -115.8169 96° East 450 518 37,000 49 Climbing Seattle Center
Fri 11:52:32 PM 47.1678 -115.6322 96° East 455 524 37,000  Level Seattle Center
Fri 11:53:32 PM 47.1547 -115.4447 96° East 462 532 37,000 -50 Level Seattle Center
Fri 11:54:33 PM 47.1422 -115.2769 96° East 477 549 36,900 -49 Descending Seattle Center
Fri 11:55:34 PM 47.1281 -115.0822 96° East 482 555 36,900  Level Seattle Center
Fri 11:56:34 PM 47.1086 -114.8453 97° East 489 563 36,900 50 Level Seattle Center
Fri 11:57:35 PM 47.0939 -114.6472 96° East 491 565 37,000  Climbing Seattle Center
Fri 11:58:36 PM 47.0778 -114.4492 97° East 492 566 36,900  Descending Seattle Center
Fri 11:59:37 PM 47.0614 -114.2506 97° East 494 568 37,000  Climbing Seattle Center
Sat 12:00:38 AM 47.0436 -114.0525 97° East 494 568 36,900 -47 Descending Seattle Center
Sat 12:01:44 AM 47.0272 -113.8550 97° East 494 568 36,900 47 Level Salt Lake Center
Sat 12:02:45 AM 47.0083 -113.6500 98° East 498 573 37,000  Climbing Salt Lake Center
Sat 12:03:46 AM 46.9881 -113.4167 97° East 497 572 36,900 -49 Descending Salt Lake Center
Sat 12:04:47 AM 46.9706 -113.2167 97° East 499 574 36,900 49 Level Salt Lake Center
Sat 12:05:48 AM 46.9508 -113.0183 98° East 494 568 37,000  Climbing Salt Lake Center
Sat 12:06:49 AM 46.9350 -112.8239 97° East 492 566 36,900 -49 Descending Salt Lake Center
Sat 12:07:50 AM 46.9147 -112.6228 98° East 500 575 36,900  Level Salt Lake Center
Sat 12:08:51 AM 46.8961 -112.4264 98° East 495 570 36,900  Level Salt Lake Center
Sat 12:09:52 AM 46.8747 -112.2308 99° East 492 566 36,900  Level Salt Lake Center
Sat 12:10:53 AM 46.8556 -112.0336 98° East 493 567 36,900 49 Level Salt Lake Center
Sat 12:11:54 AM 46.8297 -111.7947 99° East 499 574 37,000 49 Climbing Salt Lake Center
Sat 12:12:56 AM 46.8075 -111.5992 99° East 495 570 37,000 -49 Level Salt Lake Center
Sat 12:13:57 AM 46.7867 -111.4053 99° East 490 564 36,900  Descending Salt Lake Center
Sat 12:14:58 AM 46.7642 -111.2125 100° East 487 560 37,000 49 Climbing Salt Lake Center
Sat 12:15:59 AM 46.7428 -111.0192 99° East 487 560 37,000 -49 Level Salt Lake Center
Sat 12:17:00 AM 46.7206 -110.8264 99° East 486 559 36,900 -49 Descending Salt Lake Center
Sat 12:18:01 AM 46.6967 -110.6361 100° East 483 556 36,900 49 Level Salt Lake Center
Sat 12:19:02 AM 46.6725 -110.4206 99° East 480 552 37,000 49 Climbing Salt Lake Center
Sat 12:20:03 AM 46.6500 -110.2350 100° East 483 556 37,000  Level Salt Lake Center
Sat 12:21:04 AM 46.6239 -110.0172 100° East 491 565 37,000  Level Salt Lake Center
Sat 12:22:06 AM 46.6017 -109.8317 100° East 488 562 37,000  Level Salt Lake Center
Sat 12:23:07 AM 46.5792 -109.6431 100° East 492 566 37,000  Level Salt Lake Center
Sat 12:24:08 AM 46.5522 -109.4239 100° East 492 566 37,000  Level Salt Lake Center
Sat 12:25:09 AM 46.5294 -109.2364 100° East 492 566 37,000  Level Salt Lake Center
Sat 12:26:11 AM 46.5061 -109.0508 100° East 489 563 37,000  Level Salt Lake Center
Sat 12:27:11 AM 46.4775 -108.8325 101° East 492 566 37,000  Level Salt Lake Center
Sat 12:28:12 AM 46.4519 -108.6456 101° East 494 568 37,000  Level Salt Lake Center
Sat 12:29:13 AM 46.4228 -108.4264 101° East 496 571 37,000  Level Salt Lake Center
Sat 12:30:14 AM 46.3964 -108.2389 101° East 496 571 37,000  Level Salt Lake Center
Sat 12:31:15 AM 46.3697 -108.0514 102° East 496 571 37,000  Level Salt Lake Center
Sat 12:32:16 AM 46.3383 -107.8333 102° East 496 571 37,000  Level Salt Lake Center
Sat 12:33:17 AM 46.3117 -107.6469 102° East 494 568 37,000  Level Salt Lake Center
Sat 12:34:18 AM 46.2847 -107.4603 102° East 495 570 37,000  Level Salt Lake Center
Sat 12:35:20 AM 46.2514 -107.2411 102° East 499 574 37,000  Level Salt Lake Center
Sat 12:36:21 AM 46.2250 -107.0558 102° East 495 570 37,000  Level Salt Lake Center
Sat 12:37:22 AM 46.1953 -106.8689 103° East 495 570 37,000  Level Salt Lake Center
Sat 12:38:23 AM 46.1619 -106.6531 102° East 496 571 37,000  Level Salt Lake Center
Sat 12:39:24 AM 46.1319 -106.4675 103° East 496 571 37,000  Level Salt Lake Center
Sat 12:40:25 AM 46.1031 -106.2825 103° East 495 570 37,000  Level Salt Lake Center
Sat 12:41:27 AM 46.0678 -106.0675 103° East 494 568 37,000  Level Salt Lake Center
Sat 12:42:27 AM 46.0378 -105.8828 103° East 495 570 37,000  Level Salt Lake Center
Sat 12:43:28 AM 46.0092 -105.6994 103° East 493 567 37,000  Level Salt Lake Center
Sat 12:44:29 AM 45.9731 -105.4842 103° East 494 568 37,000  Level Salt Lake Center
Sat 12:45:30 AM 45.9419 -105.3014 104° East 493 567 37,000  Level Salt Lake Center
Sat 12:46:31 AM 45.9067 -105.0886 103° East 492 566 37,000  Level Salt Lake Center
Sat 12:47:32 AM 45.8792 -104.9097 102° East 485 558 37,000  Level Salt Lake Center
Sat 12:48:33 AM 45.8472 -104.7275 104° East 490 564 37,000  Level Salt Lake Center
Sat 12:49:34 AM 45.8106 -104.5153 104° East 491 565 37,000 -49 Level Salt Lake Center
Sat 12:50:35 AM 45.7808 -104.3522 105° East 492 566 36,900 -49 Descending Salt Lake Center
Sat 12:51:36 AM 45.7478 -104.1625 104° East 493 567 36,900 49 Level Salt Lake Center
Sat 12:52:37 AM 45.7131 -103.9722 105° East 496 571 37,000 49 Climbing Salt Lake Center
Sat 12:53:38 AM 45.6717 -103.7472 105° East 491 565 37,000 -49 Level Salt Lake Center
Sat 12:54:39 AM 45.6378 -103.5597 104° East 489 563 36,900 -49 Descending Salt Lake Center
Sat 12:55:40 AM 45.6031 -103.3725 105° East 488 562 36,900  Level Salt Lake Center
Sat 12:56:41 AM 45.5686 -103.1847 105° East 491 565 36,900  Level Salt Lake Center
Sat 12:57:42 AM 45.5344 -103.0039 105° East 484 557 36,900 50 Level Salt Lake Center
Sat 12:58:40 AM 45.5014 -102.8369 106° East 478 550 37,000 50 Climbing Minneapolis Center
Sat 12:59:41 AM 45.4669 -102.6533 105° East 480 552 37,000  Level Minneapolis Center
Sat 01:00:41 AM 45.4317 -102.4700 105° East 480 552 37,000  Level Minneapolis Center
Sat 01:01:42 AM 45.3950 -102.2900 106° East 477 549 37,000  Level Minneapolis Center
Sat 01:02:42 AM 45.3611 -102.1089 105° East 475 547 37,000  Level Minneapolis Center
Sat 01:03:42 AM 45.3247 -101.9289 106° East 474 545 37,000  Level Minneapolis Center
Sat 01:04:43 AM 45.2894 -101.7472 105° East 476 548 37,000  Level Minneapolis Center
Sat 01:05:43 AM 45.2503 -101.5669 107° East 478 550 37,000  Level Minneapolis Center
Sat 01:06:44 AM 45.2136 -101.3842 106° East 480 552 37,000  Level Minneapolis Center
Sat 01:07:44 AM 45.1761 -101.2019 106° East 482 555 37,000  Level Minneapolis Center
Sat 01:08:44 AM 45.1400 -101.0214 106° East 479 551 37,000  Level Minneapolis Center
Sat 01:09:45 AM 45.1017 -100.8419 107° East 477 549 37,000  Level Minneapolis Center
Sat 01:10:45 AM 45.0636 -100.6628 107° East 477 549 37,000  Level Minneapolis Center
Sat 01:11:45 AM 45.0172 -100.4481 107° East 478 550 37,000  Level Minneapolis Center
Sat 01:12:46 AM 44.9778 -100.2672 107° East 482 555 37,000  Level Minneapolis Center
Sat 01:13:46 AM 44.9386 -100.0919 107° East 480 552 37,000  Level Minneapolis Center
Sat 01:14:47 AM 44.8989 -99.9153 108° East 484 557 37,000  Level Minneapolis Center
Sat 01:15:47 AM 44.8603 -99.7386 107° East 483 556 37,000  Level Minneapolis Center
Sat 01:16:47 AM 44.8206 -99.5619 108° East 479 551 37,000  Level Minneapolis Center
Sat 01:17:48 AM 44.7817 -99.3889 108° East 472 543 37,000  Level Minneapolis Center
Sat 01:18:48 AM 44.7419 -99.2156 108° East 468 539 37,000  Level Minneapolis Center
Sat 01:19:48 AM 44.7028 -99.0428 108° East 467 537 37,000  Level Minneapolis Center
Sat 01:20:48 AM 44.6639 -98.8700 108° East 466 536 37,000  Level Minneapolis Center
Sat 01:21:49 AM 44.6228 -98.6994 109° East 464 534 37,000  Level Minneapolis Center
Sat 01:22:49 AM 44.5828 -98.5267 108° East 466 536 37,000  Level Minneapolis Center
Sat 01:23:49 AM 44.5419 -98.3489 108° East 468 539 37,000  Level Minneapolis Center
Sat 01:24:50 AM 44.5011 -98.1750 108° East 471 542 37,000  Level Minneapolis Center
Sat 01:25:50 AM 44.4592 -98.0033 109° East 469 540 37,000  Level Minneapolis Center
Sat 01:26:50 AM 44.4167 -97.8322 109° East 468 539 37,000  Level Minneapolis Center
Sat 01:27:51 AM 44.3756 -97.6597 108° East 468 539 37,000  Level Minneapolis Center
Sat 01:28:51 AM 44.3347 -97.4889 108° East 466 536 37,000  Level Minneapolis Center
Sat 01:29:51 AM 44.2919 -97.3169 109° East 470 541 37,000  Level Minneapolis Center
Sat 01:30:51 AM 44.2497 -97.1467 109° East 469 540 37,000  Level Minneapolis Center
Sat 01:31:52 AM 44.2058 -96.9769 110° East 467 537 37,000  Level Minneapolis Center
Sat 01:33:04 AM 44.1622 -96.8069 110° East 468 539 37,000  Level Minneapolis Center
Sat 01:34:04 AM 44.1106 -96.6047 110° East 466 536 37,000  Level Minneapolis Center
Sat 01:35:04 AM 44.0675 -96.4372 110° East 465 535 37,000  Level Minneapolis Center
Sat 01:36:05 AM 44.0153 -96.2383 110° East 467 537 37,000 50 Level Minneapolis Center
Sat 01:37:05 AM 43.9731 -96.0722 109° East 465 535 37,100 500 Climbing Minneapolis Center
Sat 01:38:05 AM 43.9294 -95.9058 110° East 465 535 38,000 850 Climbing Minneapolis Center
Sat 01:39:05 AM 43.8861 -95.7383 110° East 464 534 38,800 496 Climbing Minneapolis Center
Sat 01:40:06 AM 43.8406 -95.5703 111° Southeast 467 537 39,000 99 Climbing Minneapolis Center
Sat 01:41:06 AM 43.7950 -95.4031 111° Southeast 468 539 39,000  Level Minneapolis Center
Sat 01:42:06 AM 43.7506 -95.2372 110° East 463 533 39,000  Level Minneapolis Center
Sat 01:43:06 AM 43.7058 -95.0722 111° Southeast 460 529 39,000  Level Minneapolis Center
Sat 01:44:07 AM 43.6600 -94.9064 111° Southeast 465 535 39,000  Level Minneapolis Center
Sat 01:45:07 AM 43.6133 -94.7417 111° Southeast 463 533 39,000  Level Minneapolis Center
Sat 01:46:07 AM 43.5678 -94.5797 111° Southeast 457 526 39,000  Level Minneapolis Center
Sat 01:47:07 AM 43.5236 -94.4164 110° East 457 526 39,000  Level Minneapolis Center
Sat 01:48:08 AM 43.4758 -94.2542 112° Southeast 459 528 39,000  Level Minneapolis Center
Sat 01:49:08 AM 43.4328 -94.1017 111° Southeast 460 529 39,000  Level Minneapolis Center
Sat 01:50:08 AM 43.3861 -93.9406 112° Southeast 459 528 39,000  Level Minneapolis Center
Sat 01:51:08 AM 43.3406 -93.7781 111° Southeast 459 528 39,000  Level Minneapolis Center
Sat 01:52:09 AM 43.2950 -93.6181 111° Southeast 455 524 39,000  Level Minneapolis Center
Sat 01:53:09 AM 43.2483 -93.4572 112° Southeast 457 526 39,000  Level Minneapolis Center
Sat 01:54:09 AM 43.2011 -93.2983 112° Southeast 454 522 39,000  Level Minneapolis Center
Sat 01:55:09 AM 43.1447 -93.1064 112° Southeast 456 525 39,000  Level Minneapolis Center
Sat 01:56:09 AM 43.0981 -92.9506 112° Southeast 448 516 39,000  Level Minneapolis Center
Sat 01:57:10 AM 43.0517 -92.7939 112° Southeast 447 514 39,000  Level Minneapolis Center
Sat 01:58:10 AM 43.0056 -92.6372 112° Southeast 448 516 39,000  Level Minneapolis Center
Sat 01:59:10 AM 42.9592 -92.4825 112° Southeast 446 513 39,000  Level Minneapolis Center
Sat 02:00:11 AM 42.9117 -92.3294 113° Southeast 443 510 39,000  Level Minneapolis Center
Sat 02:01:11 AM 42.8656 -92.1758 112° Southeast 442 509 39,000  Level Minneapolis Center
Sat 02:02:11 AM 42.8186 -92.0239 113° Southeast 440 506 39,000  Level Minneapolis Center
Sat 02:03:24 AM 42.7631 -91.8444 113° Southeast 437 503 39,000  Level Minneapolis Center
Sat 02:04:24 AM 42.7161 -91.6933 113° Southeast 435 501 39,000  Level Minneapolis Center
Sat 02:05:24 AM 42.6694 -91.5444 113° Southeast 434 499 39,000  Level Minneapolis Center
Sat 02:06:24 AM 42.6239 -91.4047 114° Southeast 435 501 39,000  Level Minneapolis Center
Sat 02:07:25 AM 42.5672 -91.2300 114° Southeast 429 494 39,000  Level Minneapolis Center
Sat 02:08:38 AM 42.5128 -91.0556 113° Southeast 427 491 39,000  Level Chicago Center
Sat 02:09:39 AM 42.4642 -90.9106 114° Southeast 427 491 39,000  Level Chicago Center
Sat 02:10:39 AM 42.4178 -90.7661 113° Southeast 424 488 39,000  Level Chicago Center
Sat 02:11:39 AM 42.3694 -90.6206 114° Southeast 427 491 39,000  Level Chicago Center
Sat 02:12:39 AM 42.3194 -90.4772 115° Southeast 426 490 39,000  Level Chicago Center
Sat 02:13:40 AM 42.2700 -90.3336 115° Southeast 425 489 39,000  Level Chicago Center
Sat 02:14:40 AM 42.2197 -90.1889 115° Southeast 426 490 39,000  Level Chicago Center
Sat 02:15:40 AM 42.1694 -90.0450 115° Southeast 428 493 39,000  Level Chicago Center
Sat 02:16:40 AM 42.1164 -89.8889 115° Southeast 427 491 39,000  Level Chicago Center
Sat 02:17:41 AM 42.0647 -89.7428 115° Southeast 427 491 39,000  Level Chicago Center
Sat 02:18:41 AM 42.0142 -89.5994 115° Southeast 425 489 39,000  Level Chicago Center
Sat 02:19:41 AM 41.9631 -89.4544 115° Southeast 429 494 39,000  Level Chicago Center
Sat 02:20:41 AM 41.9128 -89.3119 115° Southeast 426 490 39,000  Level Chicago Center
Sat 02:21:41 AM 41.8600 -89.1706 117° Southeast 425 489 39,000  Level Chicago Center
Sat 02:22:42 AM 41.8081 -89.0281 116° Southeast 427 491 39,000  Level Chicago Center
Sat 02:23:42 AM 41.7556 -88.8850 116° Southeast 429 494 39,000  Level Chicago Center
Sat 02:24:42 AM 41.7042 -88.7419 116° Southeast 429 494 39,000  Level Chicago Center
Sat 02:25:42 AM 41.6517 -88.5994 116° Southeast 430 495 39,000  Level Chicago Center
Sat 02:26:42 AM 41.5981 -88.4556 116° Southeast 433 498 39,000  Level Chicago Center
Sat 02:27:43 AM 41.5217 -88.3394 131° Southeast 422 486 39,000  Level Chicago Center
Sat 02:28:43 AM 41.4347 -88.2356 138° Southeast 426 490 39,000  Level Chicago Center
Sat 02:29:43 AM 41.3417 -88.1092 134° Southeast 431 496 39,000  Level Chicago Center
Sat 02:30:43 AM 41.2733 -88.0169 135° Southeast 427 491 39,000  Level Chicago Center
Sat 02:31:43 AM 41.1772 -87.8828 134° Southeast 425 489 39,000  Level Chicago Center
Sat 02:32:44 AM 41.0942 -87.7694 134° Southeast 428 493 39,000  Level Chicago Center
Sat 02:33:44 AM 41.0128 -87.6564 134° Southeast 428 493 39,000  Level Chicago Center
Sat 02:34:44 AM 40.9297 -87.5450 135° Southeast 429 494 39,000  Level Chicago Center
Sat 02:35:44 AM 40.8469 -87.4322 134° Southeast 431 496 39,000 -50 Level Chicago Center
Sat 02:36:44 AM 40.7642 -87.3217 135° Southeast 427 491 38,900 -595 Descending Chicago Center
Sat 02:37:45 AM 40.6819 -87.2103 134° Southeast 426 490 37,800 -1,240 Descending Chicago Center
Sat 02:38:45 AM 40.5981 -87.0983 135° Southeast 431 496 36,400 -1,300 Descending Chicago Center
Sat 02:39:45 AM 40.5217 -86.9958 134° Southeast 437 503 35,200 -1,250 Descending Chicago Center
Sat 02:40:45 AM 40.4369 -86.8806 134° Southeast 440 506 33,900 -1,400 Descending Chicago Center
Sat 02:41:45 AM 40.3508 -86.7658 135° Southeast 442 509 32,400 -1,550 Descending Chicago Center
Sat 02:42:45 AM 40.2628 -86.6500 135° Southeast 448 516 30,800 -1,835 Descending Chicago Center
Sat 02:43:46 AM 40.1739 -86.5317 134° Southeast 454 522 28,700 -2,265 Descending Chicago Center
Sat 02:44:23 AM 40.1008 -86.4356 135° Southeast 459 528 27,100 -1,041 Descending Indianapolis Center
Sat 02:45:24 AM 40.0272 -86.3392 135° Southeast 463 533 27,000 -72 Descending Indianapolis Center
Sat 02:45:46 AM 39.9925 -86.2911 133° Southeast 464 534 27,000  Level Chicago Center
Sat 02:46:46 AM 39.8992 -86.1675 135° Southeast 470 541 27,000  Level Chicago Center
Sat 02:47:24 AM 39.8408 -86.0944 136° Southeast 471 542 27,000 -1,041 Level Indianapolis Center
Sat 02:48:24 AM 39.7544 -85.9825 135° Southeast 435 501 25,300 -2,250 Descending Indianapolis Center
Sat 02:49:24 AM 39.6736 -85.8786 135° Southeast 412 474 22,500 -2,750 Descending Indianapolis Center
Sat 02:50:24 AM 39.6119 -85.7622 124° Southeast 397 457 19,800 -2,800 Descending Indianapolis Center
Sat 02:51:24 AM 39.5672 -85.6322 114° Southeast 397 457 16,900 -2,700 Descending Indianapolis Center
Sat 02:52:24 AM 39.5258 -85.5061 113° Southeast 385 443 14,400 -1,488 Descending Indianapolis Center
Sat 02:53:25 AM 39.4711 -85.3983 123° Southeast 364 419 13,900 -1,240 Descending Indianapolis Center
Sat 02:54:25 AM 39.4106 -85.3067 131° Southeast 339 390 11,900 -1,750 Descending Indianapolis Center
Sat 02:55:25 AM 39.3286 -85.2644 158° South 317 365 10,400 -1,450 Descending Indianapolis Center
Sat 02:56:25 AM 39.2597 -85.2311 159° South 273 314 9,000 -1,400 Descending Indianapolis Center
Sat 02:57:25 AM 39.1939 -85.1967 158° South 257 296 7,600 -1,450 Descending Indianapolis Center
Sat 02:58:25 AM 39.1353 -85.1533 150° Southeast 252 290 6,100 -1,300 Descending Indianapolis Center
Sat 02:59:25 AM 39.0881 -85.0911 134° Southeast 244 281 5,000 -550 Descending Indianapolis Center
Sat 03:00:25 AM 39.0492 -85.0253 127° Southeast 239 275 5,000 -50 Level Indianapolis Center
Sat 03:01:25 AM 39.0461 -84.9492 93° East 219 252 4,900 -600 Descending Indianapolis Center
Sat 03:02:25 AM 39.0453 -84.8822 91° East 201 231 3,800 -1,143 Descending Indianapolis Center
Sat 03:02:49 AM 39.0500 -84.8500 79° East 181 208 3,300 -929 Descending Cincinnati TRACON
Sat 03:03:49 AM 39.0500 -84.7833 90° East 146 168 2,500 -750 Descending Cincinnati TRACON
Sat 03:04:49 AM 39.0500 -84.7500 90° East 109 125 1,800 -650 Descending Cincinnati TRACON
Sat 03:05:49 AM 39.0500 -84.7000 90° East 113 130 1,200 -600 Descending Cincinnati TRACON
Sat 03:07:00 AM 39.0488 -84.6678 180° South  Level Estimated
Sat 03:14:00 AM 39.0488 -84.6678 North  Level Estimated

Login

Don't have an account? Register now (free) for customized features, flight alerts, and more!